SMZO/ORG METAR and TAF weather

Enter ICAO airport designator
Station Type Date Time Source
SMZO METAR 2019/08/25 00:00 UTC NOAA

SMZO 250000Z 03005KT CAVOK 27/24 Q1013 NOSIG


Station Type Date Time Source
SMZO Decoded METAR 2019/08/25 00:00 UTC NOAA

Station name not available
Aug 24, 2019 - 08:00 PM EDT / 2019.08.25 0000 UTC
Wind: from the NNE (030 degrees) at 6 MPH (5 KT):0
Visibility: greater than 7 mile(s):0
Temperature: 80 F (27 C)
Dew Point: 75 F (24 C)
Relative Humidity: 83%
Pressure (altimeter): 29.91 in. Hg (1013 hPa)
ob: SMZO 250000Z 03005KT CAVOK 27/24 Q1013 NOSIG
cycle: 0

Station Type Date Time Source
SMZO TAF 2019/08/25 06:09 UTC NOAA

TAF TAF SMZO 250400Z 2506/2606 VRB02KT CAVOK TX32/2518Z TN24/2509Z
FM251200 14010KT 9999 SCT020
TEMPO 2517/2521 VRB12G24KT 3000 TSRA FEW015CB SCT018
BECMG 2523/2601 09004KT

Example: see airport list